sensor_id;sensor_type;location;lat;lon;timestamp;P1;durP1;ratioP1;P2;durP2;ratioP2
38513;SDS011;24282;48.400;10.808;2023-08-01T00:00:07;2.65;;;1.75;;
38513;SDS011;24282;48.400;10.808;2023-08-01T00:02:39;2.92;;;1.73;;
38513;SDS011;24282;48.400;10.808;2023-08-01T00:05:07;3.70;;;1.80;;
38513;SDS011;24282;48.400;10.808;2023-08-01T00:07:33;2.63;;;1.80;;
38513;SDS011;24282;48.400;10.808;2023-08-01T00:09:59;2.78;;;1.60;;
38513;SDS011;24282;48.400;10.808;2023-08-01T00:12:25;2.20;;;1.60;;
38513;SDS011;24282;48.400;10.808;2023-08-01T00:14:51;2.40;;;1.75;;
38513;SDS011;24282;48.400;10.808;2023-08-01T00:17:16;4.47;;;1.80;;
38513;SDS011;24282;48.400;10.808;2023-08-01T00:19:42;2.15;;;1.80;;
38513;SDS011;24282;48.400;10.808;2023-08-01T00:22:08;2.88;;;1.70;;
38513;SDS011;24282;48.400;10.808;2023-08-01T00:24:35;2.63;;;1.70;;
38513;SDS011;24282;48.400;10.808;2023-08-01T00:27:01;2.90;;;1.60;;
38513;SDS011;24282;48.400;10.808;2023-08-01T00:29:27;2.08;;;1.48;;
38513;SDS011;24282;48.400;10.808;2023-08-01T00:34:53;2.33;;;1.67;;
38513;SDS011;24282;48.400;10.808;2023-08-01T00:37:18;2.15;;;1.25;;
38513;SDS011;24282;48.400;10.808;2023-08-01T00:39:44;2.25;;;1.60;;
38513;SDS011;24282;48.400;10.808;2023-08-01T00:42:10;2.78;;;1.75;;
38513;SDS011;24282;48.400;10.808;2023-08-01T00:44:36;2.20;;;1.50;;
38513;SDS011;24282;48.400;10.808;2023-08-01T00:47:01;2.72;;;1.60;;
38513;SDS011;24282;48.400;10.808;2023-08-01T00:49:27;2.75;;;1.67;;
38513;SDS011;24282;48.400;10.808;2023-08-01T00:51:53;2.42;;;1.50;;
38513;SDS011;24282;48.400;10.808;2023-08-01T00:54:21;3.28;;;2.00;;
38513;SDS011;24282;48.400;10.808;2023-08-01T00:57:02;3.45;;;1.77;;
38513;SDS011;24282;48.400;10.808;2023-08-01T00:59:51;2.40;;;1.60;;
38513;SDS011;24282;48.400;10.808;2023-08-01T01:02:33;1.98;;;1.67;;
38513;SDS011;24282;48.400;10.808;2023-08-01T01:04:59;2.85;;;1.67;;
38513;SDS011;24282;48.400;10.808;2023-08-01T01:07:25;1.85;;;1.48;;
38513;SDS011;24282;48.400;10.808;2023-08-01T01:09:52;2.05;;;1.55;;
38513;SDS011;24282;48.400;10.808;2023-08-01T01:12:18;3.35;;;1.63;;
38513;SDS011;24282;48.400;10.808;2023-08-01T01:14:43;3.42;;;1.70;;
38513;SDS011;24282;48.400;10.808;2023-08-01T01:17:09;4.30;;;1.63;;
38513;SDS011;24282;48.400;10.808;2023-08-01T01:19:35;2.90;;;1.75;;
38513;SDS011;24282;48.400;10.808;2023-08-01T01:22:02;3.40;;;1.85;;
38513;SDS011;24282;48.400;10.808;2023-08-01T01:24:29;1.98;;;1.40;;
38513;SDS011;24282;48.400;10.808;2023-08-01T01:26:56;2.55;;;1.63;;
38513;SDS011;24282;48.400;10.808;2023-08-01T01:29:29;3.08;;;1.60;;
38513;SDS011;24282;48.400;10.808;2023-08-01T01:31:56;2.35;;;1.70;;
38513;SDS011;24282;48.400;10.808;2023-08-01T01:34:24;3.03;;;1.80;;
38513;SDS011;24282;48.400;10.808;2023-08-01T01:36:50;1.92;;;1.50;;
38513;SDS011;24282;48.400;10.808;2023-08-01T01:39:16;3.72;;;1.45;;
38513;SDS011;24282;48.400;10.808;2023-08-01T01:41:41;2.30;;;1.75;;
38513;SDS011;24282;48.400;10.808;2023-08-01T01:44:07;2.70;;;1.50;;
38513;SDS011;24282;48.400;10.808;2023-08-01T01:46:33;3.13;;;1.80;;
38513;SDS011;24282;48.400;10.808;2023-08-01T01:48:58;3.00;;;1.85;;
38513;SDS011;24282;48.400;10.808;2023-08-01T01:51:25;2.85;;;1.65;;
38513;SDS011;24282;48.400;10.808;2023-08-01T01:53:51;2.55;;;1.58;;
38513;SDS011;24282;48.400;10.808;2023-08-01T01:56:17;3.60;;;1.70;;
38513;SDS011;24282;48.400;10.808;2023-08-01T01:58:46;3.03;;;1.60;;
38513;SDS011;24282;48.400;10.808;2023-08-01T02:01:12;1.75;;;1.40;;
38513;SDS011;24282;48.400;10.808;2023-08-01T02:03:37;2.03;;;1.65;;
38513;SDS011;24282;48.400;10.808;2023-08-01T02:06:03;2.67;;;1.67;;
38513;SDS011;24282;48.400;10.808;2023-08-01T02:08:29;2.03;;;1.58;;
38513;SDS011;24282;48.400;10.808;2023-08-01T02:10:55;2.50;;;2.00;;
38513;SDS011;24282;48.400;10.808;2023-08-01T02:13:27;3.90;;;1.90;;
38513;SDS011;24282;48.400;10.808;2023-08-01T02:15:53;2.75;;;1.42;;
38513;SDS011;24282;48.400;10.808;2023-08-01T02:18:22;2.10;;;1.42;;
38513;SDS011;24282;48.400;10.808;2023-08-01T02:20:48;2.13;;;1.48;;
38513;SDS011;24282;48.400;10.808;2023-08-01T02:23:14;2.72;;;1.63;;
38513;SDS011;24282;48.400;10.808;2023-08-01T02:25:40;2.45;;;1.85;;
38513;SDS011;24282;48.400;10.808;2023-08-01T02:28:06;2.45;;;1.63;;
38513;SDS011;24282;48.400;10.808;2023-08-01T02:30:34;1.98;;;1.55;;
38513;SDS011;24282;48.400;10.808;2023-08-01T02:33:01;2.28;;;1.45;;
38513;SDS011;24282;48.400;10.808;2023-08-01T02:35:27;3.35;;;1.85;;
38513;SDS011;24282;48.400;10.808;2023-08-01T02:37:54;4.25;;;2.00;;
38513;SDS011;24282;48.400;10.808;2023-08-01T02:40:20;3.45;;;1.92;;
38513;SDS011;24282;48.400;10.808;2023-08-01T02:42:46;4.45;;;2.17;;
38513;SDS011;24282;48.400;10.808;2023-08-01T02:45:12;2.90;;;1.83;;
38513;SDS011;24282;48.400;10.808;2023-08-01T02:47:38;2.67;;;1.70;;
38513;SDS011;24282;48.400;10.808;2023-08-01T02:50:04;3.13;;;1.95;;
38513;SDS011;24282;48.400;10.808;2023-08-01T02:52:30;2.95;;;2.00;;
38513;SDS011;24282;48.400;10.808;2023-08-01T02:54:56;2.88;;;1.77;;
38513;SDS011;24282;48.400;10.808;2023-08-01T02:57:22;3.08;;;2.28;;
38513;SDS011;24282;48.400;10.808;2023-08-01T02:59:48;3.00;;;1.95;;
38513;SDS011;24282;48.400;10.808;2023-08-01T03:02:14;5.32;;;2.13;;
38513;SDS011;24282;48.400;10.808;2023-08-01T03:04:50;3.13;;;2.10;;
38513;SDS011;24282;48.400;10.808;2023-08-01T03:07:27;4.07;;;2.17;;
38513;SDS011;24282;48.400;10.808;2023-08-01T03:09:53;3.53;;;2.00;;
38513;SDS011;24282;48.400;10.808;2023-08-01T03:12:20;2.53;;;1.80;;
38513;SDS011;24282;48.400;10.808;2023-08-01T03:14:46;4.97;;;1.92;;
38513;SDS011;24282;48.400;10.808;2023-08-01T03:17:12;4.15;;;1.92;;
38513;SDS011;24282;48.400;10.808;2023-08-01T03:19:38;4.10;;;2.50;;
38513;SDS011;24282;48.400;10.808;2023-08-01T03:22:06;3.60;;;2.35;;
38513;SDS011;24282;48.400;10.808;2023-08-01T03:24:32;4.90;;;2.47;;
38513;SDS011;24282;48.400;10.808;2023-08-01T03:26:59;3.30;;;1.90;;
38513;SDS011;24282;48.400;10.808;2023-08-01T03:29:25;3.83;;;2.20;;
38513;SDS011;24282;48.400;10.808;2023-08-01T03:31:50;4.00;;;2.40;;
38513;SDS011;24282;48.400;10.808;2023-08-01T03:34:16;3.83;;;2.80;;
38513;SDS011;24282;48.400;10.808;2023-08-01T03:36:42;3.75;;;1.90;;
38513;SDS011;24282;48.400;10.808;2023-08-01T03:39:08;5.20;;;2.30;;
38513;SDS011;24282;48.400;10.808;2023-08-01T03:41:35;3.28;;;2.28;;
38513;SDS011;24282;48.400;10.808;2023-08-01T03:44:02;3.95;;;1.95;;
38513;SDS011;24282;48.400;10.808;2023-08-01T03:46:29;3.15;;;2.13;;
38513;SDS011;24282;48.400;10.808;2023-08-01T03:48:54;5.20;;;2.15;;
38513;SDS011;24282;48.400;10.808;2023-08-01T03:51:20;3.15;;;1.90;;
38513;SDS011;24282;48.400;10.808;2023-08-01T03:53:46;3.53;;;2.50;;
38513;SDS011;24282;48.400;10.808;2023-08-01T03:56:13;3.75;;;2.33;;
38513;SDS011;24282;48.400;10.808;2023-08-01T03:58:38;3.65;;;2.22;;
38513;SDS011;24282;48.400;10.808;2023-08-01T04:01:04;3.63;;;2.50;;
38513;SDS011;24282;48.400;10.808;2023-08-01T04:03:31;3.72;;;2.58;;
38513;SDS011;24282;48.400;10.808;2023-08-01T04:05:57;3.50;;;2.20;;
38513;SDS011;24282;48.400;10.808;2023-08-01T04:08:23;3.72;;;2.25;;
38513;SDS011;24282;48.400;10.808;2023-08-01T04:10:49;3.75;;;2.55;;
38513;SDS011;24282;48.400;10.808;2023-08-01T04:13:15;4.55;;;2.45;;
38513;SDS011;24282;48.400;10.808;2023-08-01T04:15:41;3.97;;;2.25;;
38513;SDS011;24282;48.400;10.808;2023-08-01T04:18:07;3.30;;;2.15;;
38513;SDS011;24282;48.400;10.808;2023-08-01T04:20:33;3.00;;;2.10;;
38513;SDS011;24282;48.400;10.808;2023-08-01T04:22:58;3.60;;;2.75;;
38513;SDS011;24282;48.400;10.808;2023-08-01T04:25:24;4.90;;;2.63;;
38513;SDS011;24282;48.400;10.808;2023-08-01T04:27:52;3.70;;;2.40;;
38513;SDS011;24282;48.400;10.808;2023-08-01T04:30:18;2.78;;;2.10;;
38513;SDS011;24282;48.400;10.808;2023-08-01T04:32:43;4.63;;;2.45;;
38513;SDS011;24282;48.400;10.808;2023-08-01T04:35:09;3.28;;;2.10;;
38513;SDS011;24282;48.400;10.808;2023-08-01T04:37:35;4.18;;;2.20;;
38513;SDS011;24282;48.400;10.808;2023-08-01T04:40:00;3.60;;;2.45;;
38513;SDS011;24282;48.400;10.808;2023-08-01T04:42:27;2.92;;;2.10;;
38513;SDS011;24282;48.400;10.808;2023-08-01T04:44:54;3.03;;;2.13;;
38513;SDS011;24282;48.400;10.808;2023-08-01T04:47:20;3.78;;;2.55;;
38513;SDS011;24282;48.400;10.808;2023-08-01T04:49:46;3.58;;;2.20;;
38513;SDS011;24282;48.400;10.808;2023-08-01T04:52:12;2.95;;;2.00;;
38513;SDS011;24282;48.400;10.808;2023-08-01T04:54:38;3.72;;;2.60;;
38513;SDS011;24282;48.400;10.808;2023-08-01T04:57:04;4.22;;;2.58;;
38513;SDS011;24282;48.400;10.808;2023-08-01T04:59:30;4.43;;;3.20;;
38513;SDS011;24282;48.400;10.808;2023-08-01T05:01:55;3.38;;;2.55;;
38513;SDS011;24282;48.400;10.808;2023-08-01T05:04:21;3.90;;;2.40;;
38513;SDS011;24282;48.400;10.808;2023-08-01T05:06:47;3.88;;;2.47;;
38513;SDS011;24282;48.400;10.808;2023-08-01T05:09:22;3.10;;;2.10;;
38513;SDS011;24282;48.400;10.808;2023-08-01T05:11:53;3.38;;;2.33;;
38513;SDS011;24282;48.400;10.808;2023-08-01T05:14:22;3.95;;;2.67;;
38513;SDS011;24282;48.400;10.808;2023-08-01T05:16:53;3.40;;;2.33;;
38513;SDS011;24282;48.400;10.808;2023-08-01T05:19:19;3.35;;;2.40;;
38513;SDS011;24282;48.400;10.808;2023-08-01T05:21:44;3.45;;;2.20;;
38513;SDS011;24282;48.400;10.808;2023-08-01T05:24:11;3.05;;;2.03;;
38513;SDS011;24282;48.400;10.808;2023-08-01T05:26:37;3.75;;;2.30;;
38513;SDS011;24282;48.400;10.808;2023-08-01T05:29:03;3.25;;;2.08;;
38513;SDS011;24282;48.400;10.808;2023-08-01T05:31:28;3.65;;;2.58;;
38513;SDS011;24282;48.400;10.808;2023-08-01T05:33:54;4.05;;;2.70;;
38513;SDS011;24282;48.400;10.808;2023-08-01T05:36:20;4.38;;;2.67;;
38513;SDS011;24282;48.400;10.808;2023-08-01T05:38:46;3.72;;;2.47;;
38513;SDS011;24282;48.400;10.808;2023-08-01T05:41:11;3.85;;;2.40;;
38513;SDS011;24282;48.400;10.808;2023-08-01T05:43:37;4.00;;;2.85;;
38513;SDS011;24282;48.400;10.808;2023-08-01T05:46:03;4.35;;;2.90;;
38513;SDS011;24282;48.400;10.808;2023-08-01T05:48:29;3.08;;;2.20;;
38513;SDS011;24282;48.400;10.808;2023-08-01T05:50:54;4.53;;;2.83;;
38513;SDS011;24282;48.400;10.808;2023-08-01T05:53:21;3.40;;;2.88;;
38513;SDS011;24282;48.400;10.808;2023-08-01T05:55:47;4.00;;;2.90;;
38513;SDS011;24282;48.400;10.808;2023-08-01T05:58:13;3.05;;;2.30;;
38513;SDS011;24282;48.400;10.808;2023-08-01T06:00:38;3.50;;;2.47;;
38513;SDS011;24282;48.400;10.808;2023-08-01T06:03:04;4.38;;;2.55;;
38513;SDS011;24282;48.400;10.808;2023-08-01T06:05:30;3.20;;;2.20;;
38513;SDS011;24282;48.400;10.808;2023-08-01T06:07:55;3.40;;;2.53;;
38513;SDS011;24282;48.400;10.808;2023-08-01T06:10:21;3.55;;;2.55;;
38513;SDS011;24282;48.400;10.808;2023-08-01T06:12:47;4.30;;;2.65;;
38513;SDS011;24282;48.400;10.808;2023-08-01T06:15:13;4.70;;;2.70;;
38513;SDS011;24282;48.400;10.808;2023-08-01T06:17:38;3.92;;;2.33;;
38513;SDS011;24282;48.400;10.808;2023-08-01T06:20:04;3.83;;;2.33;;
38513;SDS011;24282;48.400;10.808;2023-08-01T06:22:30;3.00;;;2.08;;
38513;SDS011;24282;48.400;10.808;2023-08-01T06:24:56;3.33;;;2.13;;
38513;SDS011;24282;48.400;10.808;2023-08-01T06:27:22;4.47;;;2.78;;
38513;SDS011;24282;48.400;10.808;2023-08-01T06:29:48;4.28;;;2.25;;
38513;SDS011;24282;48.400;10.808;2023-08-01T06:32:13;3.28;;;2.40;;
38513;SDS011;24282;48.400;10.808;2023-08-01T06:34:39;3.85;;;2.42;;
38513;SDS011;24282;48.400;10.808;2023-08-01T06:37:05;2.78;;;2.40;;
38513;SDS011;24282;48.400;10.808;2023-08-01T06:39:37;4.00;;;2.10;;
38513;SDS011;24282;48.400;10.808;2023-08-01T06:42:02;2.72;;;1.98;;
38513;SDS011;24282;48.400;10.808;2023-08-01T06:44:30;4.78;;;2.58;;
38513;SDS011;24282;48.400;10.808;2023-08-01T06:46:55;3.17;;;2.53;;
38513;SDS011;24282;48.400;10.808;2023-08-01T06:49:24;4.78;;;2.53;;
38513;SDS011;24282;48.400;10.808;2023-08-01T06:51:50;4.15;;;2.60;;
38513;SDS011;24282;48.400;10.808;2023-08-01T06:54:16;2.95;;;2.17;;
38513;SDS011;24282;48.400;10.808;2023-08-01T06:56:41;2.97;;;1.92;;
38513;SDS011;24282;48.400;10.808;2023-08-01T06:59:16;4.70;;;3.10;;
38513;SDS011;24282;48.400;10.808;2023-08-01T07:01:49;4.05;;;2.90;;
38513;SDS011;24282;48.400;10.808;2023-08-01T07:04:46;3.42;;;2.67;;
38513;SDS011;24282;48.400;10.808;2023-08-01T07:09:55;3.45;;;2.22;;
38513;SDS011;24282;48.400;10.808;2023-08-01T07:12:23;2.83;;;2.05;;
38513;SDS011;24282;48.400;10.808;2023-08-01T07:15:01;3.75;;;2.55;;
38513;SDS011;24282;48.400;10.808;2023-08-01T07:17:34;3.40;;;2.03;;
38513;SDS011;24282;48.400;10.808;2023-08-01T07:20:00;2.88;;;2.25;;
38513;SDS011;24282;48.400;10.808;2023-08-01T07:22:44;3.72;;;2.55;;
38513;SDS011;24282;48.400;10.808;2023-08-01T07:25:09;2.92;;;1.88;;
38513;SDS011;24282;48.400;10.808;2023-08-01T07:27:49;3.13;;;2.20;;
38513;SDS011;24282;48.400;10.808;2023-08-01T07:30:20;5.80;;;2.22;;
38513;SDS011;24282;48.400;10.808;2023-08-01T07:33:12;2.67;;;2.00;;
38513;SDS011;24282;48.400;10.808;2023-08-01T07:35:41;3.13;;;2.10;;
38513;SDS011;24282;48.400;10.808;2023-08-01T07:38:34;3.95;;;2.45;;
38513;SDS011;24282;48.400;10.808;2023-08-01T07:41:04;2.90;;;2.10;;
38513;SDS011;24282;48.400;10.808;2023-08-01T07:43:32;3.70;;;2.00;;
38513;SDS011;24282;48.400;10.808;2023-08-01T07:46:05;3.53;;;2.33;;
38513;SDS011;24282;48.400;10.808;2023-08-01T07:48:38;3.30;;;1.95;;
38513;SDS011;24282;48.400;10.808;2023-08-01T07:51:07;4.68;;;3.15;;
38513;SDS011;24282;48.400;10.808;2023-08-01T07:53:33;3.88;;;3.00;;
38513;SDS011;24282;48.400;10.808;2023-08-01T07:56:09;4.05;;;2.75;;
38513;SDS011;24282;48.400;10.808;2023-08-01T07:58:42;3.65;;;2.40;;
38513;SDS011;24282;48.400;10.808;2023-08-01T08:01:15;3.78;;;2.40;;
38513;SDS011;24282;48.400;10.808;2023-08-01T08:03:41;3.08;;;2.35;;
38513;SDS011;24282;48.400;10.808;2023-08-01T08:06:24;4.28;;;2.13;;
38513;SDS011;24282;48.400;10.808;2023-08-01T08:08:50;3.10;;;2.05;;
38513;SDS011;24282;48.400;10.808;2023-08-01T08:11:15;3.58;;;2.45;;
38513;SDS011;24282;48.400;10.808;2023-08-01T08:14:05;2.30;;;1.80;;
38513;SDS011;24282;48.400;10.808;2023-08-01T08:16:40;3.22;;;2.30;;
38513;SDS011;24282;48.400;10.808;2023-08-01T08:19:17;3.05;;;1.95;;
38513;SDS011;24282;48.400;10.808;2023-08-01T08:21:59;5.82;;;2.10;;
38513;SDS011;24282;48.400;10.808;2023-08-01T08:24:25;3.47;;;1.98;;
38513;SDS011;24282;48.400;10.808;2023-08-01T08:27:06;4.50;;;2.92;;
38513;SDS011;24282;48.400;10.808;2023-08-01T08:29:37;2.95;;;2.20;;
38513;SDS011;24282;48.400;10.808;2023-08-01T08:32:03;3.25;;;1.90;;
38513;SDS011;24282;48.400;10.808;2023-08-01T08:34:39;3.90;;;1.80;;
38513;SDS011;24282;48.400;10.808;2023-08-01T08:37:10;3.25;;;1.85;;
38513;SDS011;24282;48.400;10.808;2023-08-01T08:39:53;3.40;;;1.83;;
38513;SDS011;24282;48.400;10.808;2023-08-01T08:42:19;2.80;;;1.95;;
38513;SDS011;24282;48.400;10.808;2023-08-01T08:44:57;3.78;;;1.90;;
38513;SDS011;24282;48.400;10.808;2023-08-01T08:47:34;2.80;;;1.67;;
38513;SDS011;24282;48.400;10.808;2023-08-01T08:50:23;2.42;;;1.73;;
38513;SDS011;24282;48.400;10.808;2023-08-01T08:53:06;3.35;;;1.73;;
38513;SDS011;24282;48.400;10.808;2023-08-01T08:55:39;4.65;;;2.15;;
38513;SDS011;24282;48.400;10.808;2023-08-01T08:58:24;4.80;;;1.98;;
38513;SDS011;24282;48.400;10.808;2023-08-01T09:01:35;3.97;;;1.67;;
38513;SDS011;24282;48.400;10.808;2023-08-01T09:04:22;3.55;;;2.00;;
38513;SDS011;24282;48.400;10.808;2023-08-01T09:07:21;3.25;;;1.70;;
38513;SDS011;24282;48.400;10.808;2023-08-01T09:10:00;4.20;;;2.20;;
38513;SDS011;24282;48.400;10.808;2023-08-01T09:12:35;4.65;;;2.20;;
38513;SDS011;24282;48.400;10.808;2023-08-01T09:15:08;4.13;;;1.90;;
38513;SDS011;24282;48.400;10.808;2023-08-01T09:17:56;3.78;;;2.10;;
38513;SDS011;24282;48.400;10.808;2023-08-01T09:20:27;3.63;;;2.05;;
38513;SDS011;24282;48.400;10.808;2023-08-01T09:23:41;3.08;;;2.00;;
38513;SDS011;24282;48.400;10.808;2023-08-01T09:26:18;1.95;;;1.60;;
38513;SDS011;24282;48.400;10.808;2023-08-01T09:28:59;2.78;;;1.90;;
38513;SDS011;24282;48.400;10.808;2023-08-01T09:32:10;3.40;;;2.00;;
38513;SDS011;24282;48.400;10.808;2023-08-01T09:34:58;3.70;;;2.08;;
38513;SDS011;24282;48.400;10.808;2023-08-01T09:37:42;3.42;;;2.15;;
38513;SDS011;24282;48.400;10.808;2023-08-01T09:40:35;3.75;;;2.03;;
38513;SDS011;24282;48.400;10.808;2023-08-01T09:43:10;2.88;;;1.85;;
38513;SDS011;24282;48.400;10.808;2023-08-01T09:46:09;3.33;;;2.05;;
38513;SDS011;24282;48.400;10.808;2023-08-01T09:48:51;2.67;;;2.00;;
38513;SDS011;24282;48.400;10.808;2023-08-01T09:52:01;3.67;;;2.45;;
38513;SDS011;24282;48.400;10.808;2023-08-01T09:54:36;3.00;;;2.10;;
38513;SDS011;24282;48.400;10.808;2023-08-01T09:57:15;2.53;;;1.98;;
38513;SDS011;24282;48.400;10.808;2023-08-01T09:59:50;3.25;;;1.70;;
38513;SDS011;24282;48.400;10.808;2023-08-01T10:02:22;3.78;;;2.33;;
38513;SDS011;24282;48.400;10.808;2023-08-01T10:04:51;2.97;;;1.90;;
38513;SDS011;24282;48.400;10.808;2023-08-01T10:07:19;2.83;;;2.05;;
38513;SDS011;24282;48.400;10.808;2023-08-01T10:09:56;3.42;;;2.17;;
38513;SDS011;24282;48.400;10.808;2023-08-01T10:12:39;2.85;;;1.60;;
38513;SDS011;24282;48.400;10.808;2023-08-01T10:15:26;2.85;;;1.85;;
38513;SDS011;24282;48.400;10.808;2023-08-01T10:17:54;3.42;;;1.98;;
38513;SDS011;24282;48.400;10.808;2023-08-01T10:20:38;4.32;;;2.03;;
38513;SDS011;24282;48.400;10.808;2023-08-01T10:23:10;2.40;;;1.98;;
38513;SDS011;24282;48.400;10.808;2023-08-01T10:26:01;2.67;;;1.67;;
38513;SDS011;24282;48.400;10.808;2023-08-01T10:28:49;2.72;;;2.05;;
38513;SDS011;24282;48.400;10.808;2023-08-01T10:31:20;3.75;;;2.22;;
38513;SDS011;24282;48.400;10.808;2023-08-01T10:34:05;3.45;;;2.00;;
38513;SDS011;24282;48.400;10.808;2023-08-01T10:36:52;3.30;;;2.05;;
38513;SDS011;24282;48.400;10.808;2023-08-01T10:39:37;2.83;;;1.90;;
38513;SDS011;24282;48.400;10.808;2023-08-01T10:42:13;3.33;;;2.17;;
38513;SDS011;24282;48.400;10.808;2023-08-01T10:45:08;4.50;;;1.90;;
38513;SDS011;24282;48.400;10.808;2023-08-01T10:48:06;2.67;;;1.73;;
38513;SDS011;24282;48.400;10.808;2023-08-01T10:51:01;2.80;;;1.90;;
38513;SDS011;24282;48.400;10.808;2023-08-01T10:53:39;3.25;;;1.90;;
38513;SDS011;24282;48.400;10.808;2023-08-01T10:56:37;3.00;;;1.83;;
38513;SDS011;24282;48.400;10.808;2023-08-01T10:59:11;2.78;;;1.70;;
38513;SDS011;24282;48.400;10.808;2023-08-01T11:01:51;2.90;;;2.00;;
38513;SDS011;24282;48.400;10.808;2023-08-01T11:10:21;2.17;;;1.60;;
38513;SDS011;24282;48.400;10.808;2023-08-01T11:12:55;1.83;;;1.20;;
38513;SDS011;24282;48.400;10.808;2023-08-01T11:15:40;4.32;;;2.10;;
38513;SDS011;24282;48.400;10.808;2023-08-01T11:18:25;2.97;;;2.05;;
38513;SDS011;24282;48.400;10.808;2023-08-01T11:20:59;2.63;;;1.20;;
38513;SDS011;24282;48.400;10.808;2023-08-01T11:24:05;1.80;;;1.40;;
38513;SDS011;24282;48.400;10.808;2023-08-01T11:26:45;2.63;;;1.40;;
38513;SDS011;24282;48.400;10.808;2023-08-01T11:29:45;2.97;;;1.40;;
38513;SDS011;24282;48.400;10.808;2023-08-01T11:32:16;1.65;;;1.17;;
38513;SDS011;24282;48.400;10.808;2023-08-01T11:37:44;1.88;;;1.30;;
38513;SDS011;24282;48.400;10.808;2023-08-01T11:40:17;1.75;;;1.38;;
38513;SDS011;24282;48.400;10.808;2023-08-01T11:42:59;1.65;;;1.10;;
38513;SDS011;24282;48.400;10.808;2023-08-01T11:45:37;1.83;;;1.33;;
38513;SDS011;24282;48.400;10.808;2023-08-01T11:48:23;1.92;;;1.20;;
38513;SDS011;24282;48.400;10.808;2023-08-01T11:51:04;1.58;;;1.13;;
38513;SDS011;24282;48.400;10.808;2023-08-01T11:53:44;1.63;;;1.23;;
38513;SDS011;24282;48.400;10.808;2023-08-01T11:56:23;1.80;;;1.30;;
38513;SDS011;24282;48.400;10.808;2023-08-01T11:59:32;2.33;;;1.58;;
38513;SDS011;24282;48.400;10.808;2023-08-01T12:02:25;2.50;;;1.50;;
38513;SDS011;24282;48.400;10.808;2023-08-01T12:05:01;2.60;;;1.73;;
38513;SDS011;24282;48.400;10.808;2023-08-01T12:07:51;1.90;;;1.38;;
38513;SDS011;24282;48.400;10.808;2023-08-01T12:10:46;2.75;;;1.23;;
38513;SDS011;24282;48.400;10.808;2023-08-01T12:13:25;2.08;;;1.58;;
38513;SDS011;24282;48.400;10.808;2023-08-01T12:16:03;2.10;;;1.50;;
38513;SDS011;24282;48.400;10.808;2023-08-01T12:18:29;4.15;;;1.52;;
38513;SDS011;24282;48.400;10.808;2023-08-01T12:20:55;1.70;;;1.10;;
38513;SDS011;24282;48.400;10.808;2023-08-01T12:23:37;1.98;;;1.38;;
38513;SDS011;24282;48.400;10.808;2023-08-01T12:26:26;1.45;;;0.88;;
38513;SDS011;24282;48.400;10.808;2023-08-01T12:29:08;1.27;;;0.90;;
38513;SDS011;24282;48.400;10.808;2023-08-01T12:32:04;1.42;;;0.98;;
38513;SDS011;24282;48.400;10.808;2023-08-01T12:34:32;1.67;;;1.00;;
38513;SDS011;24282;48.400;10.808;2023-08-01T12:36:59;3.13;;;1.23;;
38513;SDS011;24282;48.400;10.808;2023-08-01T12:39:24;2.15;;;1.15;;
38513;SDS011;24282;48.400;10.808;2023-08-01T12:41:51;4.38;;;2.75;;
38513;SDS011;24282;48.400;10.808;2023-08-01T12:44:19;2.50;;;1.80;;
38513;SDS011;24282;48.400;10.808;2023-08-01T12:46:45;1.42;;;1.13;;
38513;SDS011;24282;48.400;10.808;2023-08-01T12:49:11;1.65;;;0.98;;
38513;SDS011;24282;48.400;10.808;2023-08-01T12:51:37;1.33;;;1.10;;
38513;SDS011;24282;48.400;10.808;2023-08-01T12:54:03;1.63;;;1.20;;
38513;SDS011;24282;48.400;10.808;2023-08-01T12:56:29;1.83;;;1.10;;
38513;SDS011;24282;48.400;10.808;2023-08-01T12:58:54;2.95;;;1.55;;
38513;SDS011;24282;48.400;10.808;2023-08-01T13:01:20;1.67;;;0.80;;
38513;SDS011;24282;48.400;10.808;2023-08-01T13:03:46;1.08;;;0.73;;
38513;SDS011;24282;48.400;10.808;2023-08-01T13:06:11;1.40;;;0.85;;
38513;SDS011;24282;48.400;10.808;2023-08-01T13:08:40;0.80;;;0.70;;
38513;SDS011;24282;48.400;10.808;2023-08-01T13:11:09;1.48;;;0.90;;
38513;SDS011;24282;48.400;10.808;2023-08-01T13:13:40;1.52;;;1.00;;
38513;SDS011;24282;48.400;10.808;2023-08-01T13:16:06;1.80;;;1.35;;
38513;SDS011;24282;48.400;10.808;2023-08-01T13:18:32;2.40;;;1.70;;
38513;SDS011;24282;48.400;10.808;2023-08-01T13:20:57;2.22;;;1.30;;
38513;SDS011;24282;48.400;10.808;2023-08-01T13:23:25;2.35;;;1.10;;
38513;SDS011;24282;48.400;10.808;2023-08-01T13:25:51;1.60;;;1.20;;
38513;SDS011;24282;48.400;10.808;2023-08-01T13:28:16;1.45;;;1.05;;
38513;SDS011;24282;48.400;10.808;2023-08-01T13:30:42;1.50;;;1.20;;
38513;SDS011;24282;48.400;10.808;2023-08-01T13:33:08;1.30;;;1.08;;
38513;SDS011;24282;48.400;10.808;2023-08-01T13:35:34;2.45;;;1.27;;
38513;SDS011;24282;48.400;10.808;2023-08-01T13:38:00;1.38;;;1.10;;
38513;SDS011;24282;48.400;10.808;2023-08-01T13:40:25;2.97;;;1.60;;
38513;SDS011;24282;48.400;10.808;2023-08-01T13:42:51;1.30;;;1.10;;
38513;SDS011;24282;48.400;10.808;2023-08-01T13:45:17;1.65;;;1.20;;
38513;SDS011;24282;48.400;10.808;2023-08-01T13:47:42;1.85;;;1.30;;
38513;SDS011;24282;48.400;10.808;2023-08-01T13:50:09;1.63;;;1.10;;
38513;SDS011;24282;48.400;10.808;2023-08-01T13:52:37;2.72;;;1.20;;
38513;SDS011;24282;48.400;10.808;2023-08-01T13:55:03;1.35;;;0.90;;
38513;SDS011;24282;48.400;10.808;2023-08-01T13:57:30;1.58;;;1.08;;
38513;SDS011;24282;48.400;10.808;2023-08-01T13:59:56;0.88;;;0.85;;
38513;SDS011;24282;48.400;10.808;2023-08-01T14:02:21;0.65;;;0.63;;
38513;SDS011;24282;48.400;10.808;2023-08-01T14:04:50;1.20;;;1.00;;
38513;SDS011;24282;48.400;10.808;2023-08-01T14:07:16;0.93;;;0.70;;
38513;SDS011;24282;48.400;10.808;2023-08-01T14:09:42;0.93;;;0.68;;
38513;SDS011;24282;48.400;10.808;2023-08-01T14:12:08;1.00;;;0.70;;
38513;SDS011;24282;48.400;10.808;2023-08-01T14:14:33;0.70;;;0.50;;
38513;SDS011;24282;48.400;10.808;2023-08-01T14:16:59;2.33;;;0.47;;
38513;SDS011;24282;48.400;10.808;2023-08-01T14:19:25;1.42;;;0.68;;
38513;SDS011;24282;48.400;10.808;2023-08-01T14:21:55;1.13;;;0.60;;
38513;SDS011;24282;48.400;10.808;2023-08-01T14:24:24;1.50;;;1.20;;
38513;SDS011;24282;48.400;10.808;2023-08-01T14:26:49;0.60;;;0.50;;
38513;SDS011;24282;48.400;10.808;2023-08-01T14:29:16;0.43;;;0.43;;
38513;SDS011;24282;48.400;10.808;2023-08-01T14:31:48;0.60;;;0.50;;
38513;SDS011;24282;48.400;10.808;2023-08-01T14:34:15;0.65;;;0.55;;
38513;SDS011;24282;48.400;10.808;2023-08-01T14:36:40;0.50;;;0.50;;
38513;SDS011;24282;48.400;10.808;2023-08-01T14:39:06;0.65;;;0.50;;
38513;SDS011;24282;48.400;10.808;2023-08-01T14:41:32;0.65;;;0.60;;
38513;SDS011;24282;48.400;10.808;2023-08-01T14:43:58;0.63;;;0.60;;
38513;SDS011;24282;48.400;10.808;2023-08-01T14:46:24;0.80;;;0.65;;
38513;SDS011;24282;48.400;10.808;2023-08-01T14:48:50;1.10;;;0.77;;
38513;SDS011;24282;48.400;10.808;2023-08-01T14:51:16;1.08;;;0.60;;
38513;SDS011;24282;48.400;10.808;2023-08-01T14:53:41;1.13;;;0.75;;
38513;SDS011;24282;48.400;10.808;2023-08-01T14:56:07;1.10;;;0.73;;
38513;SDS011;24282;48.400;10.808;2023-08-01T14:58:33;1.08;;;0.80;;
38513;SDS011;24282;48.400;10.808;2023-08-01T15:01:04;1.05;;;0.85;;
38513;SDS011;24282;48.400;10.808;2023-08-01T15:03:43;1.17;;;0.70;;
38513;SDS011;24282;48.400;10.808;2023-08-01T15:06:09;2.22;;;1.77;;
38513;SDS011;24282;48.400;10.808;2023-08-01T15:08:35;1.98;;;1.45;;
38513;SDS011;24282;48.400;10.808;2023-08-01T15:11:06;1.45;;;0.90;;